sensor_id;sensor_type;location;lat;lon;timestamp;pressure;altitude;pressure_sealevel;temperature;humidity
77431;BME280;66498;48.564;19.272;2023-06-26T00:00:11;97577.00;;;14.81;87.96
77431;BME280;66498;48.564;19.272;2023-06-26T00:02:37;97578.94;;;15.12;87.16
77431;BME280;66498;48.564;19.272;2023-06-26T00:05:03;97581.91;;;14.94;87.53
77431;BME280;66498;48.564;19.272;2023-06-26T00:07:29;97578.41;;;14.66;88.44
77431;BME280;66498;48.564;19.272;2023-06-26T00:09:56;97588.56;;;14.75;88.37
77431;BME280;66498;48.564;19.272;2023-06-26T00:12:22;97585.78;;;14.86;88.14
77431;BME280;66498;48.564;19.272;2023-06-26T00:14:48;97593.34;;;15.00;87.55
77431;BME280;66498;48.564;19.272;2023-06-26T00:17:13;97586.41;;;14.94;88.59
77431;BME280;66498;48.564;19.272;2023-06-26T00:19:39;97586.41;;;15.21;87.60
77431;BME280;66498;48.564;19.272;2023-06-26T00:22:04;97588.47;;;15.13;88.46
77431;BME280;66498;48.564;19.272;2023-06-26T00:24:29;97580.88;;;14.73;90.49
77431;BME280;66498;48.564;19.272;2023-06-26T00:26:55;97581.00;;;14.83;90.04
77431;BME280;66498;48.564;19.272;2023-06-26T00:29:20;97580.50;;;15.08;88.80
77431;BME280;66498;48.564;19.272;2023-06-26T00:31:46;97579.72;;;15.13;89.08
77431;BME280;66498;48.564;19.272;2023-06-26T00:34:11;97577.19;;;15.23;88.45
77431;BME280;66498;48.564;19.272;2023-06-26T00:36:37;97575.94;;;15.31;88.87
77431;BME280;66498;48.564;19.272;2023-06-26T00:39:02;97578.13;;;15.39;88.16
77431;BME280;66498;48.564;19.272;2023-06-26T00:41:29;97578.47;;;15.21;87.16
77431;BME280;66498;48.564;19.272;2023-06-26T00:43:54;97571.50;;;15.09;87.38
77431;BME280;66498;48.564;19.272;2023-06-26T00:46:20;97578.03;;;15.29;85.83
77431;BME280;66498;48.564;19.272;2023-06-26T00:48:47;97573.28;;;15.31;84.65
77431;BME280;66498;48.564;19.272;2023-06-26T00:51:14;97569.72;;;15.15;85.01
77431;BME280;66498;48.564;19.272;2023-06-26T00:53:39;97572.38;;;14.93;85.61
77431;BME280;66498;48.564;19.272;2023-06-26T00:56:05;97568.50;;;15.28;84.06
77431;BME280;66498;48.564;19.272;2023-06-26T00:58:32;97569.47;;;15.49;82.85
77431;BME280;66498;48.564;19.272;2023-06-26T01:00:57;97568.56;;;15.06;85.36
77431;BME280;66498;48.564;19.272;2023-06-26T01:03:24;97576.63;;;14.94;85.59
77431;BME280;66498;48.564;19.272;2023-06-26T01:05:52;97558.94;;;14.95;86.26
77431;BME280;66498;48.564;19.272;2023-06-26T01:08:18;97569.53;;;15.00;85.35
77431;BME280;66498;48.564;19.272;2023-06-26T01:10:44;97564.63;;;15.08;84.09
77431;BME280;66498;48.564;19.272;2023-06-26T01:13:11;97565.94;;;14.84;84.87
77431;BME280;66498;48.564;19.272;2023-06-26T01:15:37;97564.25;;;15.00;84.36
77431;BME280;66498;48.564;19.272;2023-06-26T01:18:03;97568.09;;;15.14;84.18
77431;BME280;66498;48.564;19.272;2023-06-26T01:20:31;97574.41;;;14.86;85.40
77431;BME280;66498;48.564;19.272;2023-06-26T01:23:14;97571.44;;;15.04;84.11
77431;BME280;66498;48.564;19.272;2023-06-26T01:28:39;97572.28;;;15.10;84.63
77431;BME280;66498;48.564;19.272;2023-06-26T01:31:07;97576.34;;;14.69;87.38
77431;BME280;66498;48.564;19.272;2023-06-26T01:33:41;97576.13;;;14.97;86.43
77431;BME280;66498;48.564;19.272;2023-06-26T01:36:31;97573.34;;;14.43;89.60
77431;BME280;66498;48.564;19.272;2023-06-26T01:38:56;97574.31;;;14.54;88.32
77431;BME280;66498;48.564;19.272;2023-06-26T01:41:22;97569.88;;;14.81;87.15
77431;BME280;66498;48.564;19.272;2023-06-26T01:52:16;97560.06;;;13.99;89.76
77431;BME280;66498;48.564;19.272;2023-06-26T01:55:10;97560.34;;;14.19;87.63
77431;BME280;66498;48.564;19.272;2023-06-26T01:57:38;97561.66;;;14.17;87.44
77431;BME280;66498;48.564;19.272;2023-06-26T02:00:05;97556.69;;;14.20;87.71
77431;BME280;66498;48.564;19.272;2023-06-26T02:02:31;97559.81;;;14.17;87.61
77431;BME280;66498;48.564;19.272;2023-06-26T02:04:57;97562.06;;;14.09;87.35
77431;BME280;66498;48.564;19.272;2023-06-26T02:07:22;97551.84;;;14.34;86.34
77431;BME280;66498;48.564;19.272;2023-06-26T02:09:48;97544.19;;;13.94;87.95
77431;BME280;66498;48.564;19.272;2023-06-26T02:12:13;97552.03;;;13.72;89.46
77431;BME280;66498;48.564;19.272;2023-06-26T02:14:39;97553.78;;;13.49;90.39
77431;BME280;66498;48.564;19.272;2023-06-26T02:17:04;97549.16;;;13.57;90.27
77431;BME280;66498;48.564;19.272;2023-06-26T02:19:30;97543.41;;;13.60;90.07
77431;BME280;66498;48.564;19.272;2023-06-26T02:21:55;97546.09;;;13.65;89.87
77431;BME280;66498;48.564;19.272;2023-06-26T02:24:21;97547.16;;;13.47;90.74
77431;BME280;66498;48.564;19.272;2023-06-26T02:26:46;97548.28;;;13.51;90.73
77431;BME280;66498;48.564;19.272;2023-06-26T02:29:12;97552.28;;;13.70;90.25
77431;BME280;66498;48.564;19.272;2023-06-26T02:31:37;97548.44;;;13.78;89.79
77431;BME280;66498;48.564;19.272;2023-06-26T02:34:04;97550.34;;;14.00;89.02
77431;BME280;66498;48.564;19.272;2023-06-26T02:36:29;97546.56;;;13.95;88.85
77431;BME280;66498;48.564;19.272;2023-06-26T02:38:55;97552.84;;;13.89;89.32
77431;BME280;66498;48.564;19.272;2023-06-26T02:41:20;97555.06;;;13.81;90.60
77431;BME280;66498;48.564;19.272;2023-06-26T02:43:46;97558.16;;;13.94;90.23
77431;BME280;66498;48.564;19.272;2023-06-26T02:46:11;97555.47;;;13.72;91.97
77431;BME280;66498;48.564;19.272;2023-06-26T02:48:37;97560.44;;;13.86;91.12
77431;BME280;66498;48.564;19.272;2023-06-26T02:51:03;97563.53;;;14.00;90.89
77431;BME280;66498;48.564;19.272;2023-06-26T02:53:28;97562.34;;;13.90;92.24
77431;BME280;66498;48.564;19.272;2023-06-26T02:55:54;97556.25;;;14.07;91.45
77431;BME280;66498;48.564;19.272;2023-06-26T02:58:19;97561.09;;;14.15;91.79
77431;BME280;66498;48.564;19.272;2023-06-26T03:00:45;97558.72;;;14.13;91.87
77431;BME280;66498;48.564;19.272;2023-06-26T03:03:10;97560.13;;;14.21;91.34
77431;BME280;66498;48.564;19.272;2023-06-26T03:05:38;97567.22;;;14.37;91.31
77431;BME280;66498;48.564;19.272;2023-06-26T03:08:04;97562.25;;;14.41;90.98
77431;BME280;66498;48.564;19.272;2023-06-26T03:10:29;97568.03;;;14.82;89.34
77431;BME280;66498;48.564;19.272;2023-06-26T03:12:55;97560.03;;;14.99;88.48
77431;BME280;66498;48.564;19.272;2023-06-26T03:15:21;97566.50;;;14.86;88.73
77431;BME280;66498;48.564;19.272;2023-06-26T03:17:46;97563.00;;;14.58;89.09
77431;BME280;66498;48.564;19.272;2023-06-26T03:20:12;97568.84;;;14.82;89.79
77431;BME280;66498;48.564;19.272;2023-06-26T03:22:37;97566.75;;;14.84;90.05
77431;BME280;66498;48.564;19.272;2023-06-26T03:25:03;97570.53;;;14.94;89.52
77431;BME280;66498;48.564;19.272;2023-06-26T03:27:30;97567.59;;;14.90;87.84
77431;BME280;66498;48.564;19.272;2023-06-26T03:29:55;97564.56;;;14.54;87.37
77431;BME280;66498;48.564;19.272;2023-06-26T03:32:21;97557.34;;;14.11;88.45
77431;BME280;66498;48.564;19.272;2023-06-26T03:34:47;97561.56;;;14.12;89.35
77431;BME280;66498;48.564;19.272;2023-06-26T03:37:12;97567.34;;;14.09;90.06
77431;BME280;66498;48.564;19.272;2023-06-26T03:39:38;97567.50;;;14.02;89.81
77431;BME280;66498;48.564;19.272;2023-06-26T03:42:04;97561.19;;;14.42;88.54
77431;BME280;66498;48.564;19.272;2023-06-26T03:44:29;97564.69;;;14.64;87.46
77431;BME280;66498;48.564;19.272;2023-06-26T03:46:55;97562.75;;;14.60;87.82
77431;BME280;66498;48.564;19.272;2023-06-26T03:49:20;97567.53;;;14.41;89.49
77431;BME280;66498;48.564;19.272;2023-06-26T03:51:46;97565.84;;;14.35;90.06
77431;BME280;66498;48.564;19.272;2023-06-26T03:54:12;97570.66;;;14.38;91.56
77431;BME280;66498;48.564;19.272;2023-06-26T03:56:37;97567.69;;;14.51;89.94
77431;BME280;66498;48.564;19.272;2023-06-26T03:59:03;97581.00;;;14.61;89.98
77431;BME280;66498;48.564;19.272;2023-06-26T04:01:28;97577.84;;;14.86;89.02
77431;BME280;66498;48.564;19.272;2023-06-26T04:03:54;97575.03;;;14.93;87.87
77431;BME280;66498;48.564;19.272;2023-06-26T04:06:20;97580.28;;;14.88;89.48
77431;BME280;66498;48.564;19.272;2023-06-26T04:08:45;97587.88;;;15.33;85.73
77431;BME280;66498;48.564;19.272;2023-06-26T04:11:11;97592.19;;;15.45;85.80
77431;BME280;66498;48.564;19.272;2023-06-26T04:13:36;97585.69;;;15.25;86.52
77431;BME280;66498;48.564;19.272;2023-06-26T04:16:02;97588.56;;;15.24;87.61
77431;BME280;66498;48.564;19.272;2023-06-26T04:18:27;97588.91;;;15.32;86.78
77431;BME280;66498;48.564;19.272;2023-06-26T04:21:12;97594.59;;;15.19;86.55
77431;BME280;66498;48.564;19.272;2023-06-26T04:23:39;97594.25;;;15.37;85.18
77431;BME280;66498;48.564;19.272;2023-06-26T04:26:05;97587.59;;;15.08;86.21
77431;BME280;66498;48.564;19.272;2023-06-26T04:28:32;97585.16;;;15.28;85.65
77431;BME280;66498;48.564;19.272;2023-06-26T04:30:59;97588.53;;;15.51;85.36
77431;BME280;66498;48.564;19.272;2023-06-26T04:33:25;97589.31;;;15.46;84.88
77431;BME280;66498;48.564;19.272;2023-06-26T04:35:51;97589.13;;;15.58;85.61
77431;BME280;66498;48.564;19.272;2023-06-26T04:38:16;97587.75;;;15.82;84.00
77431;BME280;66498;48.564;19.272;2023-06-26T04:40:42;97593.91;;;15.56;86.15
77431;BME280;66498;48.564;19.272;2023-06-26T04:43:08;97595.41;;;15.47;84.82
77431;BME280;66498;48.564;19.272;2023-06-26T04:45:33;97583.31;;;15.56;88.81
77431;BME280;66498;48.564;19.272;2023-06-26T04:47:59;97590.63;;;15.76;86.77
77431;BME280;66498;48.564;19.272;2023-06-26T04:50:25;97592.91;;;15.94;85.01
77431;BME280;66498;48.564;19.272;2023-06-26T04:52:51;97585.47;;;15.91;85.76
77431;BME280;66498;48.564;19.272;2023-06-26T04:55:16;97594.97;;;16.29;82.34
77431;BME280;66498;48.564;19.272;2023-06-26T04:57:42;97593.44;;;15.96;84.03
77431;BME280;66498;48.564;19.272;2023-06-26T05:00:08;97586.28;;;15.65;86.27
77431;BME280;66498;48.564;19.272;2023-06-26T05:02:36;97590.97;;;15.84;86.04
77431;BME280;66498;48.564;19.272;2023-06-26T05:05:01;97591.19;;;16.15;84.77
77431;BME280;66498;48.564;19.272;2023-06-26T05:07:27;97592.19;;;16.04;85.44
77431;BME280;66498;48.564;19.272;2023-06-26T05:09:53;97592.03;;;16.21;83.59
77431;BME280;66498;48.564;19.272;2023-06-26T05:12:19;97589.94;;;16.33;82.59
77431;BME280;66498;48.564;19.272;2023-06-26T05:14:44;97591.63;;;16.44;82.61
77431;BME280;66498;48.564;19.272;2023-06-26T05:17:10;97584.34;;;16.24;82.90
77431;BME280;66498;48.564;19.272;2023-06-26T05:19:36;97584.81;;;16.16;83.52
77431;BME280;66498;48.564;19.272;2023-06-26T05:22:01;97588.75;;;16.51;82.61
77431;BME280;66498;48.564;19.272;2023-06-26T05:24:35;97590.69;;;16.23;84.33
77431;BME280;66498;48.564;19.272;2023-06-26T05:27:02;97598.69;;;16.33;84.08
77431;BME280;66498;48.564;19.272;2023-06-26T05:29:29;97596.03;;;16.33;84.52
77431;BME280;66498;48.564;19.272;2023-06-26T05:31:56;97595.16;;;16.65;82.64
77431;BME280;66498;48.564;19.272;2023-06-26T05:34:22;97595.47;;;16.26;85.06
77431;BME280;66498;48.564;19.272;2023-06-26T05:36:50;97590.84;;;16.49;84.92
77431;BME280;66498;48.564;19.272;2023-06-26T05:39:17;97597.16;;;16.43;84.64
77431;BME280;66498;48.564;19.272;2023-06-26T05:41:46;97596.41;;;16.52;83.78
77431;BME280;66498;48.564;19.272;2023-06-26T05:44:12;97599.66;;;16.65;83.46
77431;BME280;66498;48.564;19.272;2023-06-26T05:46:38;97600.19;;;16.67;84.19
77431;BME280;66498;48.564;19.272;2023-06-26T05:49:04;97602.16;;;16.82;83.05
77431;BME280;66498;48.564;19.272;2023-06-26T05:51:30;97596.09;;;16.96;82.55
77431;BME280;66498;48.564;19.272;2023-06-26T05:53:56;97596.34;;;16.95;83.48
77431;BME280;66498;48.564;19.272;2023-06-26T05:56:22;97591.88;;;16.95;82.63
77431;BME280;66498;48.564;19.272;2023-06-26T05:58:48;97598.81;;;17.17;81.64
77431;BME280;66498;48.564;19.272;2023-06-26T06:01:15;97598.50;;;17.08;82.16
77431;BME280;66498;48.564;19.272;2023-06-26T06:03:40;97593.53;;;17.27;82.02
77431;BME280;66498;48.564;19.272;2023-06-26T06:06:06;97596.81;;;16.76;81.98
77431;BME280;66498;48.564;19.272;2023-06-26T06:08:32;97595.06;;;17.02;82.78
77431;BME280;66498;48.564;19.272;2023-06-26T06:10:59;97589.56;;;17.40;79.73
77431;BME280;66498;48.564;19.272;2023-06-26T06:13:25;97589.31;;;17.72;78.53
77431;BME280;66498;48.564;19.272;2023-06-26T06:15:50;97590.41;;;17.81;78.26
77431;BME280;66498;48.564;19.272;2023-06-26T06:18:16;97591.97;;;17.67;79.95
77431;BME280;66498;48.564;19.272;2023-06-26T06:20:41;97581.34;;;17.92;78.07
77431;BME280;66498;48.564;19.272;2023-06-26T06:23:07;97583.47;;;18.06;77.90
77431;BME280;66498;48.564;19.272;2023-06-26T06:25:33;97586.91;;;18.06;77.80
77431;BME280;66498;48.564;19.272;2023-06-26T06:27:58;97585.88;;;18.02;77.84
77431;BME280;66498;48.564;19.272;2023-06-26T06:30:25;97589.59;;;17.86;79.91
77431;BME280;66498;48.564;19.272;2023-06-26T06:33:01;97586.66;;;17.92;79.81
77431;BME280;66498;48.564;19.272;2023-06-26T06:35:27;97589.56;;;18.16;78.39
77431;BME280;66498;48.564;19.272;2023-06-26T06:37:54;97591.19;;;18.07;78.52
77431;BME280;66498;48.564;19.272;2023-06-26T06:40:19;97596.44;;;18.38;76.28
77431;BME280;66498;48.564;19.272;2023-06-26T06:42:47;97592.09;;;18.57;72.57
77431;BME280;66498;48.564;19.272;2023-06-26T06:45:13;97587.53;;;18.83;71.84
77431;BME280;66498;48.564;19.272;2023-06-26T06:47:38;97592.69;;;19.19;71.66
77431;BME280;66498;48.564;19.272;2023-06-26T06:50:04;97593.72;;;19.23;72.20
77431;BME280;66498;48.564;19.272;2023-06-26T06:52:37;97590.97;;;18.89;74.28
77431;BME280;66498;48.564;19.272;2023-06-26T06:55:04;97592.91;;;19.23;73.80
77431;BME280;66498;48.564;19.272;2023-06-26T06:57:38;97599.69;;;19.00;74.01
77431;BME280;66498;48.564;19.272;2023-06-26T07:00:08;97588.34;;;19.28;73.88
77431;BME280;66498;48.564;19.272;2023-06-26T07:02:39;97589.28;;;19.48;73.66
77431;BME280;66498;48.564;19.272;2023-06-26T07:05:05;97599.47;;;19.35;73.98
77431;BME280;66498;48.564;19.272;2023-06-26T07:07:32;97595.78;;;19.31;74.71
77431;BME280;66498;48.564;19.272;2023-06-26T07:10:03;97594.00;;;19.95;71.05
77431;BME280;66498;48.564;19.272;2023-06-26T07:12:29;97590.44;;;19.76;71.86
77431;BME280;66498;48.564;19.272;2023-06-26T07:14:56;97593.84;;;19.81;71.29
77431;BME280;66498;48.564;19.272;2023-06-26T07:17:22;97600.66;;;19.93;72.05
77431;BME280;66498;48.564;19.272;2023-06-26T07:19:48;97587.81;;;20.29;69.51
77431;BME280;66498;48.564;19.272;2023-06-26T07:22:15;97597.00;;;20.18;67.60
77431;BME280;66498;48.564;19.272;2023-06-26T07:24:41;97591.75;;;20.61;67.25
77431;BME280;66498;48.564;19.272;2023-06-26T07:27:07;97591.81;;;20.55;63.76
77431;BME280;66498;48.564;19.272;2023-06-26T07:29:32;97593.38;;;20.81;63.59
77431;BME280;66498;48.564;19.272;2023-06-26T07:31:58;97589.75;;;21.52;62.55
77431;BME280;66498;48.564;19.272;2023-06-26T07:34:24;97587.56;;;21.73;61.82
77431;BME280;66498;48.564;19.272;2023-06-26T07:36:49;97582.59;;;22.46;59.07
77431;BME280;66498;48.564;19.272;2023-06-26T07:39:15;97582.84;;;22.85;59.61
77431;BME280;66498;48.564;19.272;2023-06-26T07:41:40;97585.41;;;23.04;56.71
77431;BME280;66498;48.564;19.272;2023-06-26T07:44:06;97581.94;;;23.40;54.92
77431;BME280;66498;48.564;19.272;2023-06-26T07:46:32;97578.47;;;23.40;53.58
77431;BME280;66498;48.564;19.272;2023-06-26T07:48:57;97579.22;;;23.54;54.40
77431;BME280;66498;48.564;19.272;2023-06-26T07:51:23;97574.47;;;23.96;52.77
77431;BME280;66498;48.564;19.272;2023-06-26T07:53:49;97569.22;;;24.53;51.13
77431;BME280;66498;48.564;19.272;2023-06-26T07:56:14;97574.97;;;24.38;49.16
77431;BME280;66498;48.564;19.272;2023-06-26T07:58:40;97573.78;;;24.13;50.06
77431;BME280;66498;48.564;19.272;2023-06-26T08:01:08;97568.78;;;23.97;50.66
77431;BME280;66498;48.564;19.272;2023-06-26T08:03:34;97575.81;;;23.62;50.71
77431;BME280;66498;48.564;19.272;2023-06-26T08:05:59;97572.75;;;24.00;51.46
77431;BME280;66498;48.564;19.272;2023-06-26T08:08:31;97579.66;;;23.47;49.63
77431;BME280;66498;48.564;19.272;2023-06-26T08:10:57;97572.22;;;23.44;48.91
77431;BME280;66498;48.564;19.272;2023-06-26T08:13:24;97575.97;;;23.43;53.82
77431;BME280;66498;48.564;19.272;2023-06-26T08:15:50;97562.19;;;23.95;49.44
77431;BME280;66498;48.564;19.272;2023-06-26T08:18:17;97573.84;;;24.30;54.39
77431;BME280;66498;48.564;19.272;2023-06-26T08:20:43;97567.41;;;24.88;50.50
77431;BME280;66498;48.564;19.272;2023-06-26T08:23:08;97570.16;;;24.17;51.60
77431;BME280;66498;48.564;19.272;2023-06-26T08:25:35;97571.16;;;24.30;50.45
77431;BME280;66498;48.564;19.272;2023-06-26T08:28:00;97563.75;;;24.67;49.03
77431;BME280;66498;48.564;19.272;2023-06-26T08:30:26;97562.69;;;24.94;50.66
77431;BME280;66498;48.564;19.272;2023-06-26T08:32:55;97565.03;;;24.95;50.20
77431;BME280;66498;48.564;19.272;2023-06-26T08:35:21;97563.16;;;24.96;46.79
77431;BME280;66498;48.564;19.272;2023-06-26T08:37:49;97566.28;;;24.72;47.96
77431;BME280;66498;48.564;19.272;2023-06-26T08:40:18;97567.00;;;25.12;46.06
77431;BME280;66498;48.564;19.272;2023-06-26T08:42:45;97565.56;;;25.15;48.62
77431;BME280;66498;48.564;19.272;2023-06-26T08:45:21;97568.88;;;25.46;49.75
77431;BME280;66498;48.564;19.272;2023-06-26T08:48:17;97562.50;;;26.03;44.46
77431;BME280;66498;48.564;19.272;2023-06-26T08:50:44;97568.75;;;25.52;45.33
77431;BME280;66498;48.564;19.272;2023-06-26T08:54:01;97562.69;;;25.63;45.31
77431;BME280;66498;48.564;19.272;2023-06-26T08:56:09;97561.06;;;24.75;45.26
77431;BME280;66498;48.564;19.272;2023-06-26T08:58:36;97559.25;;;25.45;43.62
77431;BME280;66498;48.564;19.272;2023-06-26T09:01:06;97556.34;;;25.77;42.35
77431;BME280;66498;48.564;19.272;2023-06-26T09:03:55;97550.88;;;25.56;44.15
77431;BME280;66498;48.564;19.272;2023-06-26T09:06:54;97543.19;;;26.48;42.01
77431;BME280;66498;48.564;19.272;2023-06-26T09:10:37;97544.03;;;26.31;43.79
77431;BME280;66498;48.564;19.272;2023-06-26T09:13:04;97545.16;;;26.30;42.60
77431;BME280;66498;48.564;19.272;2023-06-26T09:15:57;97550.16;;;27.00;41.10
77431;BME280;66498;48.564;19.272;2023-06-26T09:18:23;97547.00;;;26.38;42.22
77431;BME280;66498;48.564;19.272;2023-06-26T09:20:49;97541.56;;;26.56;40.70
77431;BME280;66498;48.564;19.272;2023-06-26T09:23:15;97546.16;;;26.55;46.29
77431;BME280;66498;48.564;19.272;2023-06-26T09:25:41;97546.28;;;26.88;42.09
77431;BME280;66498;48.564;19.272;2023-06-26T09:28:08;97545.56;;;26.50;42.77
77431;BME280;66498;48.564;19.272;2023-06-26T09:30:34;97544.94;;;27.24;40.25
77431;BME280;66498;48.564;19.272;2023-06-26T09:33:14;97544.72;;;27.08;42.83
77431;BME280;66498;48.564;19.272;2023-06-26T09:35:40;97539.69;;;26.56;40.64
77431;BME280;66498;48.564;19.272;2023-06-26T09:38:06;97540.22;;;26.32;41.86
77431;BME280;66498;48.564;19.272;2023-06-26T09:40:32;97542.47;;;26.30;43.39
77431;BME280;66498;48.564;19.272;2023-06-26T09:43:07;97541.28;;;26.10;43.53
77431;BME280;66498;48.564;19.272;2023-06-26T09:45:34;97539.44;;;25.67;42.60
77431;BME280;66498;48.564;19.272;2023-06-26T09:48:13;97538.00;;;26.34;41.83
77431;BME280;66498;48.564;19.272;2023-06-26T09:50:41;97546.19;;;26.47;42.19
77431;BME280;66498;48.564;19.272;2023-06-26T09:53:11;97540.53;;;25.92;42.57
77431;BME280;66498;48.564;19.272;2023-06-26T09:55:39;97547.38;;;25.46;42.82
77431;BME280;66498;48.564;19.272;2023-06-26T09:58:08;97541.38;;;24.97;44.32
77431;BME280;66498;48.564;19.272;2023-06-26T10:00:34;97538.44;;;26.07;42.41
77431;BME280;66498;48.564;19.272;2023-06-26T10:03:00;97535.72;;;27.04;39.49
77431;BME280;66498;48.564;19.272;2023-06-26T10:05:26;97534.09;;;26.82;40.27
77431;BME280;66498;48.564;19.272;2023-06-26T10:07:55;97530.84;;;26.09;41.53
77431;BME280;66498;48.564;19.272;2023-06-26T10:10:23;97527.34;;;26.47;37.97
77431;BME280;66498;48.564;19.272;2023-06-26T10:12:53;97519.97;;;26.64;38.67
77431;BME280;66498;48.564;19.272;2023-06-26T10:15:20;97525.22;;;27.66;40.29
77431;BME280;66498;48.564;19.272;2023-06-26T10:17:46;97524.50;;;28.02;39.89
77431;BME280;66498;48.564;19.272;2023-06-26T10:20:14;97521.97;;;28.30;41.47
77431;BME280;66498;48.564;19.272;2023-06-26T10:22:47;97511.59;;;27.29;43.11
77431;BME280;66498;48.564;19.272;2023-06-26T10:25:18;97515.63;;;27.68;42.64
77431;BME280;66498;48.564;19.272;2023-06-26T10:27:49;97515.66;;;27.35;40.52
77431;BME280;66498;48.564;19.272;2023-06-26T10:30:20;97504.94;;;27.05;41.88
77431;BME280;66498;48.564;19.272;2023-06-26T10:32:47;97500.38;;;28.42;37.43
77431;BME280;66498;48.564;19.272;2023-06-26T10:35:13;97504.69;;;28.84;37.34
77431;BME280;66498;48.564;19.272;2023-06-26T10:37:43;97500.59;;;28.62;37.57
77431;BME280;66498;48.564;19.272;2023-06-26T10:40:13;97502.25;;;28.66;37.10
77431;BME280;66498;48.564;19.272;2023-06-26T10:42:39;97496.16;;;28.69;36.47
77431;BME280;66498;48.564;19.272;2023-06-26T10:45:15;97506.22;;;29.37;35.87
77431;BME280;66498;48.564;19.272;2023-06-26T10:47:44;97497.28;;;29.21;35.94
77431;BME280;66498;48.564;19.272;2023-06-26T10:50:20;97490.91;;;28.48;41.86
77431;BME280;66498;48.564;19.272;2023-06-26T10:55:55;97486.97;;;29.11;36.61
77431;BME280;66498;48.564;19.272;2023-06-26T11:04:05;97489.00;;;28.24;36.81
77431;BME280;66498;48.564;19.272;2023-06-26T11:06:31;97485.44;;;29.26;34.62
77431;BME280;66498;48.564;19.272;2023-06-26T11:09:08;97483.38;;;29.63;34.14
77431;BME280;66498;48.564;19.272;2023-06-26T11:14:22;97481.47;;;29.51;34.39
77431;BME280;66498;48.564;19.272;2023-06-26T11:16:48;97481.47;;;29.07;35.40
77431;BME280;66498;48.564;19.272;2023-06-26T11:19:16;97478.78;;;28.42;35.76
77431;BME280;66498;48.564;19.272;2023-06-26T11:21:42;97476.97;;;28.99;35.30
77431;BME280;66498;48.564;19.272;2023-06-26T11:24:08;97478.44;;;28.96;35.50
77431;BME280;66498;48.564;19.272;2023-06-26T11:26:41;97483.84;;;27.62;38.65
77431;BME280;66498;48.564;19.272;2023-06-26T11:29:08;97478.69;;;26.81;38.19
77431;BME280;66498;48.564;19.272;2023-06-26T11:31:35;97473.78;;;26.24;43.73
77431;BME280;66498;48.564;19.272;2023-06-26T11:34:03;97472.91;;;26.11;41.01
77431;BME280;66498;48.564;19.272;2023-06-26T11:36:30;97474.47;;;26.42;40.63
77431;BME280;66498;48.564;19.272;2023-06-26T11:39:00;97479.44;;;26.31;41.38
77431;BME280;66498;48.564;19.272;2023-06-26T11:41:30;97476.22;;;27.64;39.33
77431;BME280;66498;48.564;19.272;2023-06-26T11:43:59;97469.25;;;27.63;38.42
77431;BME280;66498;48.564;19.272;2023-06-26T11:46:25;97470.44;;;27.98;38.90
77431;BME280;66498;48.564;19.272;2023-06-26T11:48:50;97469.47;;;29.20;41.05
77431;BME280;66498;48.564;19.272;2023-06-26T11:51:17;97472.81;;;29.02;38.76
77431;BME280;66498;48.564;19.272;2023-06-26T11:53:45;97462.56;;;27.81;37.93
77431;BME280;66498;48.564;19.272;2023-06-26T11:56:12;97460.81;;;27.52;37.03
77431;BME280;66498;48.564;19.272;2023-06-26T12:01:36;97465.41;;;27.64;39.99
77431;BME280;66498;48.564;19.272;2023-06-26T12:04:04;97463.25;;;28.02;36.62
77431;BME280;66498;48.564;19.272;2023-06-26T12:06:32;97458.38;;;28.33;40.28
77431;BME280;66498;48.564;19.272;2023-06-26T12:09:03;97463.84;;;28.73;37.01
77431;BME280;66498;48.564;19.272;2023-06-26T12:11:30;97462.66;;;28.09;37.45
77431;BME280;66498;48.564;19.272;2023-06-26T12:13:57;97456.97;;;28.23;36.61
77431;BME280;66498;48.564;19.272;2023-06-26T12:16:23;97450.72;;;28.59;38.65
77431;BME280;66498;48.564;19.272;2023-06-26T12:18:48;97457.41;;;29.02;36.55
77431;BME280;66498;48.564;19.272;2023-06-26T12:24:14;97458.75;;;29.24;34.52
77431;BME280;66498;48.564;19.272;2023-06-26T12:26:45;97459.06;;;29.07;35.41
77431;BME280;66498;48.564;19.272;2023-06-26T12:29:15;97452.47;;;29.64;33.48
77431;BME280;66498;48.564;19.272;2023-06-26T12:31:51;97460.22;;;28.41;36.41
77431;BME280;66498;48.564;19.272;2023-06-26T12:34:19;97447.75;;;29.61;35.68
77431;BME280;66498;48.564;19.272;2023-06-26T12:36:47;97447.91;;;29.52;35.36
77431;BME280;66498;48.564;19.272;2023-06-26T12:39:19;97446.41;;;29.55;33.33
77431;BME280;66498;48.564;19.272;2023-06-26T12:41:52;97445.66;;;30.17;31.57
77431;BME280;66498;48.564;19.272;2023-06-26T12:44:29;97448.72;;;30.86;31.92
77431;BME280;66498;48.564;19.272;2023-06-26T12:46:57;97443.13;;;30.09;32.73
77431;BME280;66498;48.564;19.272;2023-06-26T12:49:39;97446.72;;;29.21;34.42
77431;BME280;66498;48.564;19.272;2023-06-26T12:52:07;97446.94;;;28.23;34.79
77431;BME280;66498;48.564;19.272;2023-06-26T12:54:34;97444.91;;;28.45;35.51
77431;BME280;66498;48.564;19.272;2023-06-26T12:57:00;97443.13;;;28.24;34.44
77431;BME280;66498;48.564;19.272;2023-06-26T12:59:26;97436.53;;;28.74;36.00
77431;BME280;66498;48.564;19.272;2023-06-26T13:01:51;97438.34;;;29.27;33.88
77431;BME280;66498;48.564;19.272;2023-06-26T13:04:17;97432.75;;;29.19;35.64
77431;BME280;66498;48.564;19.272;2023-06-26T13:06:43;97438.75;;;28.85;36.84
77431;BME280;66498;48.564;19.272;2023-06-26T13:09:09;97436.66;;;28.94;36.04
77431;BME280;66498;48.564;19.272;2023-06-26T13:11:36;97426.16;;;29.33;35.14
77431;BME280;66498;48.564;19.272;2023-06-26T13:14:02;97424.72;;;29.99;32.24
77431;BME280;66498;48.564;19.272;2023-06-26T13:16:28;97425.50;;;29.08;32.61
77431;BME280;66498;48.564;19.272;2023-06-26T13:18:54;97411.53;;;30.13;32.81
77431;BME280;66498;48.564;19.272;2023-06-26T13:21:20;97411.34;;;30.22;31.71